Time;durP1;ratioP1;P1;durP2;ratioP2;P2;SDS_P1;SDS_P2;PMS_P1;PMS_P2;Temp;Humidity;BMP_temperature;BMP_pressure;BME280_temperature;BME280_humidity;BME280_pressure;Samples;Min_cycle;Max_cycle;Signal;HPM_P1;HPM_P2
2022/06/26 00:01:55;;;;;;;5.87;5.15;;;;;;;21.92;53.01;98740.88;2290865;78;20948;-82
2022/06/26 00:04:55;;;;;;;5.35;4.83;;;;;;;21.99;50.50;98736.67;2290599;78;21039;-83
2022/06/26 00:07:56;;;;;;;7.08;5.10;;;;;;;21.76;50.23;98742.34;2290304;78;21335;-81
2022/06/26 00:10:56;;;;;;;5.47;4.40;;;;;;;21.51;50.26;98744.95;2289524;78;20979;-84
2022/06/26 00:13:57;;;;;;;5.37;4.87;;;;;;;21.24;50.93;98747.19;2290190;78;20916;-83
2022/06/26 00:16:57;;;;;;;7.62;4.72;;;;;;;21.12;51.58;98749.75;2290297;78;20948;-83
2022/06/26 00:19:57;;;;;;;9.38;4.92;;;;;;;21.25;51.71;98746.27;2290212;78;20909;-82
2022/06/26 00:22:58;;;;;;;5.22;4.72;;;;;;;21.32;51.69;98749.14;2290377;78;20935;-82
2022/06/26 00:25:58;;;;;;;5.35;4.80;;;;;;;21.49;51.93;98754.75;2291024;78;20982;-82
2022/06/26 00:28:59;;;;;;;5.47;4.85;;;;;;;21.63;51.81;98749.84;2290894;78;21266;-82
2022/06/26 00:31:59;;;;;;;6.47;4.35;;;;;;;21.76;51.68;98756.09;2290714;78;20948;-85
2022/06/26 00:34:59;;;;;;;7.08;4.35;;;;;;;21.79;51.64;98752.00;2292045;77;21477;-82
2022/06/26 00:38:00;;;;;;;5.30;4.60;;;;;;;21.86;51.54;98750.86;2298478;77;21371;-83
2022/06/26 00:41:00;;;;;;;4.62;4.17;;;;;;;21.88;51.32;98751.67;2297911;77;20969;-84
2022/06/26 00:44:01;;;;;;;6.03;4.55;;;;;;;21.86;51.18;98752.19;2291531;78;20991;-83
2022/06/26 00:47:01;;;;;;;5.33;4.65;;;;;;;21.84;51.50;98754.03;2291389;78;21316;-82
2022/06/26 00:50:01;;;;;;;5.20;4.22;;;;;;;21.76;51.35;98756.96;2291493;78;20924;-83
2022/06/26 00:53:02;;;;;;;4.97;4.47;;;;;;;21.75;51.86;98753.03;2291366;78;20971;-84
2022/06/26 00:56:02;;;;;;;6.05;4.40;;;;;;;21.82;51.95;98765.17;2291429;78;20932;-83
2022/06/26 00:59:03;;;;;;;6.15;5.25;;;;;;;21.79;51.95;98760.84;2291264;78;20971;-83
2022/06/26 01:02:03;;;;;;;5.10;4.60;;;;;;;21.83;52.06;98760.27;2291065;78;20991;-82
2022/06/26 01:05:03;;;;;;;7.35;4.78;;;;;;;21.88;52.28;98763.17;2289924;78;21024;-82
2022/06/26 01:08:04;;;;;;;5.25;4.37;;;;;;;21.89;52.20;98755.61;2281580;78;20930;-83
2022/06/26 01:11:17;;;;;;;5.00;4.60;;;;;;;21.92;51.92;98762.61;2281464;78;21338;-84
2022/06/26 01:14:08;;;;;;;4.97;4.58;;;;;;;21.85;52.38;98761.09;2281532;78;20937;-84
2022/06/26 01:17:13;;;;;;;8.20;4.72;;;;;;;21.86;52.11;98765.02;2281417;78;21341;-83
2022/06/26 01:20:10;;;;;;;6.75;5.20;;;;;;;21.84;52.39;98759.34;2259425;78;20942;-84
2022/06/26 01:23:11;;;;;;;9.80;4.80;;;;;;;21.78;52.79;98761.76;2281627;78;20973;-84
2022/06/26 01:26:14;;;;;;;6.00;5.27;;;;;;;21.61;51.44;98764.97;2281431;78;20977;-84
2022/06/26 01:29:14;;;;;;;5.92;5.25;;;;;;;21.42;51.26;98763.84;2281217;78;20981;-83
2022/06/26 01:32:14;;;;;;;6.65;4.80;;;;;;;21.17;51.42;98769.52;2281456;77;21316;-83
2022/06/26 01:35:15;;;;;;;5.10;4.70;;;;;;;20.89;51.68;98767.73;2281105;78;21435;-84
2022/06/26 01:38:15;;;;;;;5.15;4.47;;;;;;;20.67;52.23;98766.16;2281417;78;20926;-83
2022/06/26 01:41:16;;;;;;;5.17;4.65;;;;;;;20.71;52.61;98767.39;2281709;78;20934;-83
2022/06/26 01:44:16;;;;;;;6.10;4.65;;;;;;;20.78;52.75;98761.85;2281469;78;20994;-83
2022/06/26 01:47:17;;;;;;;6.75;4.50;;;;;;;20.81;52.96;98764.44;2281125;78;20944;-84
2022/06/26 01:50:17;;;;;;;7.33;4.60;;;;;;;20.89;52.85;98765.08;2281387;78;20930;-83
2022/06/26 01:53:17;;;;;;;8.08;4.80;;;;;;;20.93;52.95;98765.39;2281540;78;20926;-83
2022/06/26 01:56:18;;;;;;;5.10;4.65;;;;;;;20.85;52.93;98768.73;2281245;78;20938;-83
2022/06/26 01:59:18;;;;;;;4.90;4.50;;;;;;;20.91;53.25;98765.89;2281465;78;20949;-85
2022/06/26 02:02:19;;;;;;;8.90;4.58;;;;;;;20.97;53.37;98764.38;2281881;78;21330;-83
2022/06/26 02:05:19;;;;;;;9.85;4.33;;;;;;;20.96;53.36;98768.41;2277398;78;20960;-82
2022/06/26 02:08:19;;;;;;;4.92;4.53;;;;;;;20.89;53.27;98775.69;2249147;79;20940;-83
2022/06/26 02:14:40;;;;;;;6.47;4.50;;;;;;;20.83;53.34;98777.66;2248917;78;20905;-83
2022/06/26 02:17:40;;;;;;;6.85;4.80;;;;;;;20.82;53.60;98779.45;2249266;78;21280;-84
2022/06/26 02:20:41;;;;;;;5.25;4.70;;;;;;;20.80;53.96;98781.24;2249093;78;21371;-83
2022/06/26 02:23:41;;;;;;;6.87;5.00;;;;;;;20.86;54.17;98789.50;2249038;78;20927;-83
2022/06/26 02:26:42;;;;;;;8.95;4.80;;;;;;;20.96;53.90;98795.81;2249116;78;20944;-86
2022/06/26 02:29:42;;;;;;;5.30;4.80;;;;;;;20.98;53.91;98791.32;2249054;78;20939;-83
2022/06/26 02:32:42;;;;;;;7.70;5.15;;;;;;;21.02;53.79;98799.19;2248623;78;20936;-84
2022/06/26 02:35:43;;;;;;;8.65;4.58;;;;;;;21.01;53.87;98797.45;2248957;78;21003;-83
2022/06/26 02:38:43;;;;;;;4.92;4.53;;;;;;;21.02;53.61;98797.86;2248715;78;20971;-82
2022/06/26 02:41:48;;;;;;;6.37;5.12;;;;;;;20.93;53.83;98806.52;2248401;78;20968;-82
2022/06/26 02:44:46;;;;;;;7.15;4.60;;;;;;;20.95;53.53;98812.64;2225823;79;20959;-82
2022/06/26 02:47:46;;;;;;;6.85;4.92;;;;;;;20.99;54.14;98814.29;2248892;78;21592;-83
2022/06/26 02:50:47;;;;;;;7.97;4.67;;;;;;;20.99;54.06;98814.29;2248695;78;20960;-83
2022/06/26 02:53:47;;;;;;;7.20;4.50;;;;;;;20.98;53.76;98808.57;2248962;79;20991;-83
2022/06/26 02:56:47;;;;;;;10.48;5.87;;;;;;;21.04;54.27;98810.63;2248935;79;21288;-83
2022/06/26 02:59:48;;;;;;;5.90;5.30;;;;;;;21.16;54.62;98806.27;2248829;79;20968;-82
2022/06/26 03:02:48;;;;;;;7.70;5.10;;;;;;;21.25;52.77;98809.53;2248981;78;20929;-84
2022/06/26 03:05:49;;;;;;;5.60;5.10;;;;;;;21.16;52.37;98815.55;2256869;77;21019;-84
2022/06/26 03:08:49;;;;;;;5.10;4.62;;;;;;;21.05;52.24;98819.87;2290205;78;20963;-83
2022/06/26 03:11:49;;;;;;;10.70;5.20;;;;;;;20.93;52.60;98821.11;2290284;78;20971;-83
2022/06/26 03:14:50;;;;;;;9.95;5.47;;;;;;;20.90;52.68;98821.66;2289902;78;21374;-82
2022/06/26 03:17:50;;;;;;;5.67;5.08;;;;;;;20.88;52.76;98824.81;2291109;78;20955;-84
2022/06/26 03:20:51;;;;;;;8.40;4.65;;;;;;;20.86;52.85;98827.97;2291131;78;20920;-83
2022/06/26 03:24:03;;;;;;;5.78;4.95;;;;;;;20.85;52.93;98828.89;2290719;78;20967;-83
2022/06/26 03:27:03;;;;;;;5.95;4.70;;;;;;;20.82;53.16;98833.83;2290941;78;20912;-83
2022/06/26 03:30:04;;;;;;;7.40;5.35;;;;;;;20.77;53.30;98833.52;2291279;78;21288;-82
2022/06/26 03:33:04;;;;;;;11.95;5.12;;;;;;;20.78;53.33;98831.28;2290592;78;20936;-83
2022/06/26 03:36:07;;;;;;;5.50;5.00;;;;;;;20.69;53.79;98837.72;2290819;78;20992;-81
2022/06/26 03:39:05;;;;;;;7.87;4.72;;;;;;;20.62;53.64;98838.36;2291027;78;21269;-83
2022/06/26 03:42:05;;;;;;;5.75;4.67;;;;;;;20.59;53.83;98838.44;2290537;78;20988;-83
2022/06/26 03:45:06;;;;;;;7.35;4.72;;;;;;;20.64;54.14;98836.53;2290610;78;20916;-83
2022/06/26 03:48:06;;;;;;;6.00;4.78;;;;;;;20.73;53.96;98835.39;2290147;78;21343;-82
2022/06/26 03:51:07;;;;;;;6.05;4.80;;;;;;;20.67;54.22;98840.88;2290618;78;20880;-83
2022/06/26 03:54:07;;;;;;;9.55;5.17;;;;;;;20.76;54.58;98839.73;2291146;78;20932;-85
2022/06/26 03:57:07;;;;;;;7.42;5.37;;;;;;;20.78;54.82;98837.45;2290901;78;21288;-82
2022/06/26 04:00:08;;;;;;;11.10;5.25;;;;;;;20.99;54.60;98839.95;2290901;78;20912;-83
2022/06/26 04:03:08;;;;;;;6.92;4.75;;;;;;;21.15;54.79;98829.73;2291052;78;20963;-82
2022/06/26 04:06:09;;;;;;;7.08;4.95;;;;;;;21.38;54.32;98833.03;2288763;78;21001;-84
2022/06/26 04:09:09;;;;;;;6.50;5.55;;;;;;;21.67;54.07;98841.38;2281047;78;20942;-83
2022/06/26 04:12:09;;;;;;;9.48;5.25;;;;;;;21.84;53.29;98847.03;2280939;78;21021;-83
2022/06/26 04:15:10;;;;;;;6.75;5.12;;;;;;;21.85;53.20;98845.66;2280830;78;20946;-83
2022/06/26 04:18:10;;;;;;;6.00;5.10;;;;;;;22.10;53.10;98841.73;2280649;78;20974;-83
2022/06/26 04:21:11;;;;;;;7.80;4.95;;;;;;;22.27;52.54;98840.27;2280096;78;21005;-85
2022/06/26 04:24:12;;;;;;;6.50;4.80;;;;;;;22.38;52.34;98844.74;2281022;78;21018;-85
2022/06/26 04:27:11;;;;;;;11.43;5.12;;;;;;;22.62;51.85;98846.55;2280970;78;21471;-83
2022/06/26 04:30:12;;;;;;;7.80;5.03;;;;;;;22.91;51.79;98852.60;2281144;78;20997;-84
2022/06/26 04:33:12;;;;;;;6.03;5.03;;;;;;;23.27;50.39;98848.52;2281558;78;21667;-85
2022/06/26 04:36:13;;;;;;;5.65;4.87;;;;;;;23.41;49.73;98846.20;2281657;77;20997;-84
2022/06/26 04:39:13;;;;;;;5.05;4.65;;;;;;;23.48;49.46;98846.83;2281969;78;20969;-84
2022/06/26 04:42:13;;;;;;;6.42;5.60;;;;;;;23.64;48.74;98852.44;2281569;77;20973;-83
2022/06/26 04:45:14;;;;;;;6.45;5.35;;;;;;;23.71;48.56;98857.45;2281308;78;20950;-84
2022/06/26 04:48:14;;;;;;;8.93;4.97;;;;;;;23.80;48.49;98858.86;2281577;78;20918;-83
2022/06/26 04:51:15;;;;;;;6.78;4.92;;;;;;;23.88;48.08;98855.88;2281723;78;20977;-84
2022/06/26 04:54:15;;;;;;;6.12;5.15;;;;;;;23.89;48.35;98861.14;2281975;78;20973;-87
2022/06/26 04:57:15;;;;;;;7.33;5.17;;;;;;;23.95;48.03;98858.22;2281934;78;20977;-84
2022/06/26 05:00:16;;;;;;;8.03;5.60;;;;;;;24.12;48.29;98857.50;2281822;78;21350;-84
2022/06/26 05:03:16;;;;;;;22.80;6.10;;;;;;;24.32;48.19;98855.38;2281658;78;20977;-84
2022/06/26 05:06:17;;;;;;;5.30;4.80;;;;;;;24.47;47.93;98857.84;2274392;77;21003;-82
2022/06/26 05:09:17;;;;;;;6.80;4.58;;;;;;;24.45;47.34;98861.91;2248009;78;20943;-81
2022/06/26 05:12:17;;;;;;;7.47;4.83;;;;;;;24.36;47.38;98861.84;2247968;78;20924;-81
2022/06/26 05:15:19;;;;;;;7.55;4.90;;;;;;;24.21;47.62;98869.58;2248336;79;20979;-80
2022/06/26 05:18:18;;;;;;;8.45;4.70;;;;;;;24.28;47.85;98871.98;2248295;78;20920;-80
2022/06/26 05:21:19;;;;;;;9.83;5.20;;;;;;;24.31;47.47;98872.31;2248832;78;20888;-80
2022/06/26 05:24:19;;;;;;;7.50;4.55;;;;;;;24.33;46.93;98877.98;2248509;78;20928;-79
2022/06/26 05:27:20;;;;;;;5.83;4.67;;;;;;;24.41;47.14;98884.32;2247734;78;20916;-80
2022/06/26 05:30:20;;;;;;;8.45;4.75;;;;;;;24.54;46.85;98878.84;2247554;78;20970;-80
2022/06/26 05:33:21;;;;;;;6.53;4.47;;;;;;;24.71;46.86;98884.30;2247966;79;20932;-80
2022/06/26 05:36:21;;;;;;;7.30;5.05;;;;;;;24.90;46.25;98886.13;2247307;78;21377;-81
2022/06/26 05:39:22;;;;;;;8.90;4.83;;;;;;;25.03;46.50;98886.88;2248142;79;20940;-80
2022/06/26 05:42:22;;;;;;;5.25;4.53;;;;;;;25.21;45.58;98887.85;2248968;78;20955;-80
2022/06/26 05:45:22;;;;;;;5.70;4.62;;;;;;;25.23;45.23;98895.33;2249178;78;20936;-80
2022/06/26 05:48:24;;;;;;;5.55;4.90;;;;;;;25.30;45.24;98898.11;2248873;79;21312;-80
2022/06/26 05:51:23;;;;;;;5.17;4.60;;;;;;;25.38;45.29;98895.94;2248882;78;20908;-80
2022/06/26 05:54:24;;;;;;;6.22;4.45;;;;;;;25.60;45.44;98903.80;2248989;78;20932;-79
2022/06/26 05:57:25;;;;;;;6.12;4.50;;;;;;;25.75;44.84;98902.69;2248869;79;21280;-80
2022/06/26 06:00:24;;;;;;;7.03;4.40;;;;;;;25.91;44.41;98900.98;2248611;78;20975;-79
2022/06/26 06:03:25;;;;;;;10.28;4.58;;;;;;;26.04;44.09;98904.82;2248699;78;21335;-80
2022/06/26 06:06:25;;;;;;;5.72;4.30;;;;;;;26.14;44.09;98907.90;2253702;77;22145;-79
2022/06/26 06:09:26;;;;;;;8.63;4.80;;;;;;;26.28;43.90;98910.27;2281214;78;20957;-79
2022/06/26 06:12:26;;;;;;;5.95;4.83;;;;;;;26.39;43.12;98915.11;2281206;78;21310;-80
2022/06/26 06:15:26;;;;;;;10.03;4.85;;;;;;;26.52;43.11;98915.34;2281022;78;20966;-79
2022/06/26 06:18:27;;;;;;;5.67;4.72;;;;;;;26.73;43.09;98912.02;2281182;78;20918;-80
2022/06/26 06:21:27;;;;;;;5.58;4.78;;;;;;;26.95;43.01;98919.33;2281255;78;20969;-80
2022/06/26 06:24:28;;;;;;;5.33;4.83;;;;;;;27.06;41.80;98919.65;2281063;78;21361;-80
2022/06/26 06:27:28;;;;;;;7.28;5.03;;;;;;;27.11;42.08;98918.06;2281017;78;20926;-81
2022/06/26 06:30:29;;;;;;;4.75;4.35;;;;;;;27.24;40.98;98917.30;2281283;78;20950;-79
2022/06/26 06:33:33;;;;;;;5.12;4.17;;;;;;;27.22;41.59;98919.20;2281294;78;20981;-79
2022/06/26 06:36:31;;;;;;;5.20;4.80;;;;;;;27.39;41.70;98927.66;2259477;78;20938;-80
2022/06/26 06:39:32;;;;;;;7.33;4.67;;;;;;;27.62;41.32;98923.73;2280694;78;21001;-80
2022/06/26 06:42:32;;;;;;;5.05;4.55;;;;;;;27.85;41.16;98927.34;2280720;78;21004;-81
2022/06/26 06:45:32;;;;;;;5.65;4.10;;;;;;;28.03;40.50;98927.23;2280087;78;20918;-81
2022/06/26 06:48:34;;;;;;;6.67;4.33;;;;;;;28.04;40.80;98931.17;2280884;78;20981;-80
2022/06/26 06:51:34;;;;;;;5.12;3.98;;;;;;;28.10;40.12;98930.81;2280989;77;20986;-82
2022/06/26 06:54:34;;;;;;;5.87;4.60;;;;;;;28.31;40.03;98935.43;2280886;78;20945;-80
2022/06/26 06:57:34;;;;;;;6.22;4.12;;;;;;;28.45;39.84;98930.11;2280963;78;20910;-81
2022/06/26 07:00:34;;;;;;;4.70;4.30;;;;;;;28.63;39.70;98933.55;2280378;78;20958;-80
2022/06/26 07:03:35;;;;;;;7.35;4.22;;;;;;;28.75;38.51;98940.86;2280860;78;20993;-80
2022/06/26 07:06:35;;;;;;;4.08;3.67;;;;;;;28.78;38.95;98942.48;2282327;77;21347;-81
2022/06/26 07:09:36;;;;;;;5.25;4.17;;;;;;;28.98;37.54;98939.48;2290098;78;21320;-81
2022/06/26 07:12:36;;;;;;;5.95;3.90;;;;;;;28.89;37.52;98933.81;2289723;78;20928;-79
2022/06/26 07:15:37;;;;;;;6.08;3.92;;;;;;;29.06;37.45;98938.53;2289782;78;20917;-80
2022/06/26 07:18:37;;;;;;;4.50;3.62;;;;;;;29.30;36.99;98941.98;2289975;78;20963;-81
2022/06/26 07:21:38;;;;;;;6.75;3.92;;;;;;;29.50;36.19;98942.13;2289925;78;20896;-79
2022/06/26 07:24:39;;;;;;;24.50;4.58;;;;;;;29.65;36.14;98938.45;2290121;78;20967;-82
2022/06/26 07:27:38;;;;;;;6.55;3.70;;;;;;;29.80;35.91;98940.15;2291197;78;20956;-81
2022/06/26 07:30:39;;;;;;;5.25;3.40;;;;;;;30.00;35.43;98937.02;2290846;78;21285;-80
2022/06/26 07:36:58;;;;;;;5.62;3.40;;;;;;;30.37;33.70;98935.48;2292041;77;21391;-80
2022/06/26 07:39:58;;;;;;;4.62;3.60;;;;;;;30.41;34.21;98937.48;2298126;77;20949;-80
2022/06/26 07:42:59;;;;;;;7.80;3.50;;;;;;;30.38;33.32;98938.55;2292192;77;20932;-80
2022/06/26 07:45:59;;;;;;;3.75;3.40;;;;;;;30.64;33.12;98937.29;2290821;78;21284;-80
2022/06/26 07:48:59;;;;;;;5.03;3.35;;;;;;;30.68;33.67;98932.93;2290428;78;20943;-80
2022/06/26 07:52:00;;;;;;;6.33;3.40;;;;;;;30.90;33.38;98937.69;2290165;78;20952;-80
2022/06/26 07:55:00;;;;;;;4.87;3.02;;;;;;;31.14;33.37;98934.24;2290183;78;20960;-80
2022/06/26 07:58:01;;;;;;;4.25;3.10;;;;;;;31.17;32.29;98934.92;2290996;78;20944;-80
2022/06/26 08:01:01;;;;;;;4.83;3.05;;;;;;;31.10;32.53;98928.69;2290642;78;20941;-81
2022/06/26 08:04:02;;;;;;;7.60;3.10;;;;;;;31.17;31.51;98937.62;2290475;78;21040;-80
2022/06/26 08:07:03;;;;;;;3.85;3.33;;;;;;;30.91;31.09;98934.03;2282418;78;21007;-80
2022/06/26 08:10:03;;;;;;;7.22;3.02;;;;;;;30.96;31.86;98939.09;2248741;78;21304;-79
2022/06/26 08:13:03;;;;;;;4.30;3.08;;;;;;;31.23;30.96;98939.05;2248877;78;21280;-80
2022/06/26 08:16:04;;;;;;;3.45;3.05;;;;;;;31.37;30.59;98934.87;2248160;79;20959;-81
2022/06/26 08:19:04;;;;;;;5.95;3.02;;;;;;;31.28;30.53;98936.40;2248446;78;20968;-80
2022/06/26 08:22:05;;;;;;;6.60;3.02;;;;;;;31.38;30.21;98938.44;2248707;78;21037;-81
2022/06/26 08:25:05;;;;;;;3.77;2.62;;;;;;;31.54;30.44;98939.91;2248847;78;21268;-79
2022/06/26 08:28:05;;;;;;;3.17;2.87;;;;;;;31.72;28.95;98934.19;2249039;79;20909;-81
2022/06/26 08:31:06;;;;;;;6.35;2.87;;;;;;;31.79;29.04;98940.85;2249157;78;20948;-81
2022/06/26 08:34:06;;;;;;;2.87;2.67;;;;;;;31.89;28.58;98944.11;2248941;78;21003;-81
2022/06/26 08:37:07;;;;;;;4.70;2.20;;;;;;;31.96;28.86;98943.17;2248600;78;21427;-80
2022/06/26 08:40:07;;;;;;;4.72;2.40;;;;;;;31.84;28.23;98947.64;2248014;79;20911;-80
2022/06/26 08:43:08;;;;;;;2.52;2.33;;;;;;;31.75;27.68;98939.36;2247966;78;21336;-81
2022/06/26 08:46:08;;;;;;;4.25;2.52;;;;;;;31.85;27.82;98939.05;2247858;78;20940;-80
2022/06/26 08:49:08;;;;;;;11.30;2.95;;;;;;;31.97;27.62;98934.09;2247937;79;20983;-81
2022/06/26 08:52:09;;;;;;;9.45;3.17;;;;;;;31.95;26.79;98932.00;2248296;79;21247;-79
2022/06/26 08:55:09;;;;;;;5.85;2.35;;;;;;;31.95;26.79;98932.00;2248938;78;21312;-79
2022/06/26 08:58:10;;;;;;;7.22;2.45;;;;;;;31.86;27.33;98940.29;2249002;78;20916;-80
2022/06/26 09:04:26;;;;;;;2.75;2.50;;;;;;;31.85;27.02;98939.05;2261981;79;22876;-79
2022/06/26 09:07:27;;;;;;;2.85;2.65;;;;;;;31.80;28.02;98944.79;2229146;80;20998;-80
2022/06/26 09:10:27;;;;;;;4.87;3.15;;;;;;;32.10;28.17;98938.98;2229160;80;20960;-80
2022/06/26 09:13:28;;;;;;;5.97;3.47;;;;;;;32.12;27.77;98947.83;2229100;80;21335;-80
2022/06/26 09:16:28;;;;;;;9.60;3.87;;;;;;;32.08;28.06;98939.59;2229070;80;21000;-79
2022/06/26 09:19:33;;;;;;;6.90;2.70;;;;;;;32.06;28.18;98931.20;2229256;80;20955;-79
2022/06/26 09:22:29;;;;;;;4.08;2.80;;;;;;;32.05;28.75;98943.83;2228379;80;20955;-79
2022/06/26 09:25:29;;;;;;;2.87;2.67;;;;;;;32.25;27.99;98943.27;2228735;80;20990;-79
2022/06/26 09:28:30;;;;;;;4.40;2.75;;;;;;;32.31;27.26;98932.48;2229052;80;20983;-80
2022/06/26 09:31:30;;;;;;;4.42;2.67;;;;;;;32.06;27.78;98936.11;2228619;80;21334;-80
2022/06/26 09:34:30;;;;;;;4.70;2.80;;;;;;;32.08;27.96;98928.78;2228880;80;20953;-80
2022/06/26 09:37:31;;;;;;;4.47;2.50;;;;;;;32.28;26.99;98932.23;2228879;80;20940;-79
2022/06/26 09:40:31;;;;;;;3.92;2.80;;;;;;;32.33;27.54;98937.77;2228700;80;20975;-80
2022/06/26 09:43:32;;;;;;;4.28;2.92;;;;;;;32.24;27.03;98944.24;2227969;80;21486;-80
2022/06/26 09:46:32;;;;;;;3.62;2.85;;;;;;;32.36;27.00;98936.19;2227740;80;21339;-79
2022/06/26 09:49:32;;;;;;;3.92;2.75;;;;;;;32.40;27.26;98947.13;2227712;80;20884;-79
2022/06/26 09:52:33;;;;;;;9.10;2.70;;;;;;;32.38;27.01;98935.58;2227834;80;20991;-80
2022/06/26 09:55:33;;;;;;;4.60;2.67;;;;;;;32.53;26.85;98936.63;2227840;80;21411;-80
2022/06/26 09:58:34;;;;;;;3.77;2.65;;;;;;;32.44;26.70;98940.52;2229054;80;20916;-79
2022/06/26 10:08:11;;;;;;;4.00;2.70;;;;;;;32.76;26.30;98933.98;2228854;80;20932;-80
2022/06/26 10:11:12;;;;;;;6.22;2.83;;;;;;;32.85;26.40;98938.22;2228680;80;20943;-80
2022/06/26 10:14:13;;;;;;;3.77;2.47;;;;;;;32.87;26.78;98932.20;2228548;80;20996;-79
2022/06/26 10:17:13;;;;;;;4.12;2.47;;;;;;;32.83;26.46;98932.07;2227969;80;20951;-81
2022/06/26 10:20:13;;;;;;;2.62;2.42;;;;;;;32.78;26.27;98934.27;2227444;80;20956;-81
2022/06/26 10:23:13;;;;;;;2.90;2.67;;;;;;;32.91;26.81;98932.33;2227365;80;21018;-80
2022/06/26 10:26:14;;;;;;;5.70;2.72;;;;;;;32.97;24.94;98935.08;2227484;80;20967;-79
2022/06/26 10:29:14;;;;;;;4.17;2.30;;;;;;;32.90;25.53;98934.66;2227485;80;21371;-79
2022/06/26 10:32:14;;;;;;;5.80;2.40;;;;;;;33.05;25.51;98939.88;2227375;80;21006;-80
2022/06/26 10:35:15;;;;;;;2.52;2.33;;;;;;;33.20;24.94;98940.02;2228237;80;20976;-81
2022/06/26 10:38:15;;;;;;;3.98;2.30;;;;;;;33.15;24.97;98935.47;2227813;80;21319;-79
2022/06/26 10:44:35;;;;;;;2.50;2.30;;;;;;;33.12;24.76;98934.36;2227490;80;21090;-79
2022/06/26 10:47:35;;;;;;;3.10;2.60;;;;;;;33.16;25.08;98927.72;2228020;80;20916;-80
2022/06/26 10:50:35;;;;;;;5.17;2.58;;;;;;;33.03;25.20;98929.67;2228323;80;20983;-80
2022/06/26 10:53:36;;;;;;;3.45;2.45;;;;;;;33.15;24.27;98936.33;2227772;80;20900;-79
2022/06/26 10:56:36;;;;;;;4.15;2.42;;;;;;;32.98;24.44;98935.94;2227914;80;20968;-80
2022/06/26 10:59:37;;;;;;;4.25;2.45;;;;;;;33.13;24.79;98936.08;2228029;80;21367;-80
2022/06/26 11:02:37;;;;;;;2.85;2.55;;;;;;;33.29;24.59;98929.81;2223476;80;21446;-80
2022/06/26 11:05:37;;;;;;;3.30;2.30;;;;;;;33.44;24.61;98944.84;2211168;81;20940;-80
2022/06/26 11:08:38;;;;;;;4.03;2.90;;;;;;;33.30;24.08;98938.33;2211036;81;20956;-80
2022/06/26 11:11:38;;;;;;;4.35;3.22;;;;;;;33.34;23.83;98934.39;2211132;81;21281;-81
2022/06/26 11:14:39;;;;;;;2.30;2.20;;;;;;;33.50;24.10;98935.38;2211630;81;21320;-80
2022/06/26 11:17:39;;;;;;;3.20;2.40;;;;;;;33.54;23.98;98939.06;2211018;81;20984;-80
2022/06/26 11:20:52;;;;;;;3.47;2.35;;;;;;;33.30;23.86;98934.77;2211131;81;20956;-80
2022/06/26 11:23:54;;;;;;;8.38;2.60;;;;;;;33.34;23.87;98935.75;2188903;81;21015;-79
2022/06/26 11:26:54;;;;;;;2.50;2.25;;;;;;;33.32;23.11;98932.30;2210963;81;20913;-80
2022/06/26 11:29:55;;;;;;;3.42;2.20;;;;;;;33.46;22.73;98928.00;2211137;81;20949;-80
2022/06/26 11:32:55;;;;;;;4.37;2.42;;;;;;;33.54;23.16;98928.73;2210821;80;21067;-80
2022/06/26 11:35:55;;;;;;;3.70;2.50;;;;;;;33.51;22.49;98928.48;2211066;81;20976;-80
2022/06/26 11:38:56;;;;;;;3.42;2.55;;;;;;;33.49;22.40;98923.69;2211338;81;21272;-80
2022/06/26 11:41:57;;;;;;;3.45;2.40;;;;;;;33.63;23.09;98922.56;2211110;81;20992;-80
2022/06/26 11:44:59;;;;;;;2.70;2.50;;;;;;;33.84;23.65;98922.22;2211060;81;20975;-80
2022/06/26 11:47:57;;;;;;;3.72;2.45;;;;;;;33.89;23.60;98925.91;2211160;81;20909;-80
2022/06/26 11:50:58;;;;;;;4.92;2.60;;;;;;;33.78;23.22;98924.02;2210991;81;20924;-79
2022/06/26 11:53:58;;;;;;;3.55;2.30;;;;;;;33.84;23.58;98922.22;2211191;81;21440;-80
2022/06/26 11:56:58;;;;;;;2.67;2.42;;;;;;;33.97;23.21;98912.59;2211052;81;20976;-79
2022/06/26 11:59:59;;;;;;;4.20;2.45;;;;;;;33.76;22.93;98921.93;2211009;81;20951;-80
2022/06/26 12:02:59;;;;;;;2.87;2.47;;;;;;;33.73;22.71;98924.03;2211344;80;21039;-80
2022/06/26 12:06:00;;;;;;;2.58;2.33;;;;;;;33.90;22.75;98920.86;2211714;81;21328;-80
2022/06/26 12:09:00;;;;;;;2.75;2.08;;;;;;;34.13;22.33;98916.23;2211223;81;20984;-79
2022/06/26 12:12:00;;;;;;;3.67;2.50;;;;;;;34.30;22.96;98918.87;2211158;81;20980;-79
2022/06/26 12:15:01;;;;;;;2.65;2.45;;;;;;;34.22;22.15;98922.72;2210978;81;21368;-80
2022/06/26 12:18:01;;;;;;;2.47;2.27;;;;;;;34.07;22.18;98922.16;2210713;81;21383;-80
2022/06/26 12:21:02;;;;;;;3.15;2.60;;;;;;;34.10;22.61;98920.06;2210742;81;20932;-80
2022/06/26 12:24:02;;;;;;;2.80;2.20;;;;;;;34.11;22.46;98918.20;2211155;81;20972;-79
2022/06/26 12:27:02;;;;;;;3.67;2.58;;;;;;;34.17;22.60;98925.33;2211109;81;20893;-79
2022/06/26 12:30:03;;;;;;;2.83;2.55;;;;;;;34.21;22.56;98921.86;2210728;81;20988;-79
2022/06/26 12:33:04;;;;;;;2.50;2.30;;;;;;;34.28;22.96;98916.30;2210886;80;21051;-79
2022/06/26 12:36:04;;;;;;;2.50;2.30;;;;;;;34.32;22.05;98919.14;2211275;81;20968;-83
2022/06/26 12:39:04;;;;;;;3.17;2.40;;;;;;;34.24;21.78;98913.48;2211299;81;21356;-84
2022/06/26 12:42:04;;;;;;;3.95;2.77;;;;;;;34.02;21.99;98913.06;2211325;81;21486;-81
2022/06/26 12:45:05;;;;;;;3.27;2.60;;;;;;;33.87;21.86;98910.28;2211314;81;21004;-84
2022/06/26 12:48:05;;;;;;;3.08;2.80;;;;;;;33.80;22.34;98919.83;2211560;81;20929;-83
2022/06/26 12:51:06;;;;;;;2.72;2.52;;;;;;;33.58;22.53;98917.16;2211348;81;20959;-84
2022/06/26 12:54:06;;;;;;;3.17;2.55;;;;;;;33.41;22.94;98908.56;2211588;81;20968;-81
2022/06/26 12:57:07;;;;;;;2.50;2.30;;;;;;;33.43;23.05;98909.30;2211754;81;20960;-81
2022/06/26 13:00:07;;;;;;;3.72;2.40;;;;;;;33.53;22.91;98918.40;2211216;81;20953;-83
2022/06/26 13:03:07;;;;;;;3.10;2.72;;;;;;;33.56;23.29;98916.80;2213922;80;21011;-82
2022/06/26 13:06:08;;;;;;;5.03;2.60;;;;;;;33.54;23.56;98910.64;2221910;80;20964;-78
2022/06/26 13:09:08;;;;;;;3.00;2.40;;;;;;;33.61;23.35;98909.66;2221231;80;20980;-78
2022/06/26 13:12:09;;;;;;;3.12;2.45;;;;;;;33.82;23.37;98893.55;2222117;80;21007;-80
2022/06/26 13:15:09;;;;;;;3.83;2.40;;;;;;;34.11;23.91;98902.81;2221824;80;20936;-78
2022/06/26 13:18:09;;;;;;;6.12;2.70;;;;;;;34.14;23.33;98902.56;2221582;80;20920;-78
2022/06/26 13:21:10;;;;;;;2.77;2.58;;;;;;;34.28;23.21;98905.95;2221729;80;20956;-78
2022/06/26 13:24:10;;;;;;;3.42;2.25;;;;;;;34.32;23.49;98896.58;2221853;80;20999;-80
2022/06/26 13:27:14;;;;;;;5.62;3.17;;;;;;;34.47;23.02;98896.66;2221406;80;20929;-78
2022/06/26 13:30:14;;;;;;;4.33;2.50;;;;;;;34.48;23.03;98895.66;2221599;80;20937;-79
2022/06/26 13:33:15;;;;;;;2.80;2.55;;;;;;;34.50;22.91;98899.96;2221714;80;20983;-78
2022/06/26 13:36:15;;;;;;;3.58;2.62;;;;;;;34.50;22.91;98899.96;2221592;80;20940;-78
2022/06/26 13:39:15;;;;;;;3.58;2.72;;;;;;;34.59;22.28;98889.32;2221610;80;21257;-80
2022/06/26 13:42:16;;;;;;;2.70;2.50;;;;;;;34.79;22.28;98897.48;2221782;80;20979;-78
2022/06/26 13:45:16;;;;;;;2.83;2.62;;;;;;;34.86;21.96;98894.27;2221749;80;20952;-79
2022/06/26 13:48:17;;;;;;;4.05;2.80;;;;;;;34.89;21.56;98892.64;2221588;80;20964;-80
2022/06/26 13:51:17;;;;;;;3.33;2.50;;;;;;;34.63;21.70;98901.13;2222162;80;20980;-79
2022/06/26 13:54:18;;;;;;;2.75;2.25;;;;;;;34.46;21.96;98893.58;2221070;80;21011;-79
2022/06/26 13:57:18;;;;;;;2.92;2.67;;;;;;;34.45;22.35;98895.43;2221746;80;20948;-79
2022/06/26 14:00:18;;;;;;;2.60;2.40;;;;;;;34.52;22.42;98895.77;2221880;80;20992;-79
2022/06/26 14:03:19;;;;;;;2.40;2.20;;;;;;;34.68;22.22;98897.55;2218953;80;20984;-79
2022/06/26 14:06:19;;;;;;;3.20;2.55;;;;;;;34.85;22.29;98902.04;2211676;81;20948;-79
2022/06/26 14:09:19;;;;;;;5.47;2.70;;;;;;;34.83;21.85;98890.47;2211418;81;20964;-83
2022/06/26 14:12:20;;;;;;;2.17;2.08;;;;;;;34.92;22.20;98889.66;2211477;81;21408;-82
2022/06/26 14:15:20;;;;;;;5.47;2.45;;;;;;;34.73;21.89;98889.88;2211165;81;20957;-81
2022/06/26 14:18:21;;;;;;;2.70;2.40;;;;;;;34.46;21.49;98882.74;2211209;81;20969;-82
2022/06/26 14:21:21;;;;;;;4.03;2.30;;;;;;;34.16;22.03;98886.17;2211337;81;21424;-81
2022/06/26 14:27:40;;;;;;;2.90;2.27;;;;;;;34.18;22.10;98890.48;2211274;81;20981;-81
2022/06/26 14:30:41;;;;;;;2.85;2.50;;;;;;;34.16;22.72;98888.39;2211151;81;21305;-80
2022/06/26 14:33:41;;;;;;;3.37;2.50;;;;;;;34.26;22.48;98891.18;2211373;81;21344;-81